Mc Comb/Pike County/John E Lewis Field
KMCB : rendu visible

Aérodrome :











RETROUVEZ-NOUS SUR...

 
LOGIN :

S'inscrire | Disclaimer

   EN    FR    IT 

 









Légende :    VFR   VFR Marginal   IFR   IFR Intensif   IFR Très Intensif
Visi : 
Plafond : 
>= 8 km
>= 3000ft
5 à 8 km
1000 à 3000 ft
1500m à 5 km
500 à 1000 ft
800 à 1500m
200 à 500 ft
< 800m
< 200 ft
Symboles :   Orages  Brouillard  Fortes neiges  Fortes précipitations  Vent > 20 kt






- Altitude de l'aérodrome : 413 ft


KMCB - Mc Comb/Pike County/John E Lewis Field

DERNIER METAR :
  • 210753Z AUTO 00000KT 6SM BR CLR 06/04 A3016 RMK AO2 SLP209 T00610044

METARs EXPIRÉS :
  • 210653Z AUTO 00000KT 8SM CLR 08/05 A3017 RMK AO2 SLP214 T00780050
  • 210553Z AUTO 00000KT 10SM CLR 08/06 A3018 RMK AO2 SLP215 T00830056 10167 20083 402330044 53003

TAF KMCB
Valide du 21 à 06h jusqu'au 22 à 06h UTC


210520Z 2106/2206 00000KT P6SM SKC
FM211600 17005KT P6SM FEW090 FEW250
FM212100 18007KT P6SM SCT050 BKN250
FM220000 VRB03KT P6SM SCT050 BKN200
FM220400 VRB04KT P6SM SCT050 BKN150



MET'MAP, la Météo Aéronautique d'un coup d'oeil ! - Copyright ORBIFLY Décembre 2007 - Disclaimer

ORBIFLY MET'MAP TEAM :

Programmation & Développement : Alexandra Zaïnal
Conception & Développement : Baudouin d'Aumeries
Co-Programmation & Développement : Marc-Olivier Méhu
Soutien technique & logistique : Manuel Goepfert

Contact : metmap@orbifly.com




SOURCES & CREDITS :

   NOAA       Earth
Advisory